sensor_id;sensor_type;location;lat;lon;timestamp;temperature;humidity
29237;DHT22;16266;50.866;4.398;2023-03-31T00:02:18;12.00;99.90
29237;DHT22;16266;50.866;4.398;2023-03-31T00:04:46;12.00;99.90
29237;DHT22;16266;50.866;4.398;2023-03-31T00:07:17;12.00;99.90
29237;DHT22;16266;50.866;4.398;2023-03-31T00:09:47;12.00;99.90
29237;DHT22;16266;50.866;4.398;2023-03-31T00:12:15;12.00;99.90
29237;DHT22;16266;50.866;4.398;2023-03-31T00:14:42;11.90;99.90
29237;DHT22;16266;50.866;4.398;2023-03-31T00:17:08;11.90;99.90
29237;DHT22;16266;50.866;4.398;2023-03-31T00:19:35;11.90;99.90
29237;DHT22;16266;50.866;4.398;2023-03-31T00:22:01;11.90;99.90
29237;DHT22;16266;50.866;4.398;2023-03-31T00:24:28;11.90;99.90
29237;DHT22;16266;50.866;4.398;2023-03-31T00:26:58;11.90;99.90
29237;DHT22;16266;50.866;4.398;2023-03-31T00:29:23;11.90;99.90
29237;DHT22;16266;50.866;4.398;2023-03-31T00:31:49;11.80;99.90
29237;DHT22;16266;50.866;4.398;2023-03-31T00:34:15;11.80;99.90
29237;DHT22;16266;50.866;4.398;2023-03-31T00:36:41;11.70;99.90
29237;DHT22;16266;50.866;4.398;2023-03-31T00:39:13;11.70;99.90
29237;DHT22;16266;50.866;4.398;2023-03-31T00:41:39;11.70;99.90
29237;DHT22;16266;50.866;4.398;2023-03-31T00:44:16;11.60;99.90
29237;DHT22;16266;50.866;4.398;2023-03-31T00:46:55;11.60;99.90
29237;DHT22;16266;50.866;4.398;2023-03-31T00:49:34;11.60;99.90
29237;DHT22;16266;50.866;4.398;2023-03-31T00:52:06;11.60;99.90
29237;DHT22;16266;50.866;4.398;2023-03-31T00:54:35;11.60;99.90
29237;DHT22;16266;50.866;4.398;2023-03-31T00:57:03;11.60;99.90
29237;DHT22;16266;50.866;4.398;2023-03-31T00:59:35;11.60;99.90
29237;DHT22;16266;50.866;4.398;2023-03-31T01:02:02;11.60;99.90
29237;DHT22;16266;50.866;4.398;2023-03-31T01:04:36;11.60;99.90
29237;DHT22;16266;50.866;4.398;2023-03-31T01:07:13;11.60;99.90
29237;DHT22;16266;50.866;4.398;2023-03-31T01:09:43;11.60;99.90
29237;DHT22;16266;50.866;4.398;2023-03-31T01:12:13;11.60;99.90
29237;DHT22;16266;50.866;4.398;2023-03-31T01:14:39;11.60;99.90
29237;DHT22;16266;50.866;4.398;2023-03-31T01:17:05;11.60;99.90
29237;DHT22;16266;50.866;4.398;2023-03-31T01:19:58;11.60;99.90
29237;DHT22;16266;50.866;4.398;2023-03-31T01:28:40;11.40;99.90
29237;DHT22;16266;50.866;4.398;2023-03-31T01:34:18;11.30;99.90
29237;DHT22;16266;50.866;4.398;2023-03-31T01:48:15;11.40;99.90
29237;DHT22;16266;50.866;4.398;2023-03-31T01:53:35;11.20;99.90
29237;DHT22;16266;50.866;4.398;2023-03-31T01:56:12;11.30;99.90
29237;DHT22;16266;50.866;4.398;2023-03-31T01:58:43;11.30;99.90
29237;DHT22;16266;50.866;4.398;2023-03-31T02:01:17;11.30;99.90
29237;DHT22;16266;50.866;4.398;2023-03-31T02:03:49;11.30;99.90
29237;DHT22;16266;50.866;4.398;2023-03-31T02:06:22;11.30;99.90
29237;DHT22;16266;50.866;4.398;2023-03-31T02:09:14;11.30;99.90
29237;DHT22;16266;50.866;4.398;2023-03-31T02:11:41;11.20;99.90
29237;DHT22;16266;50.866;4.398;2023-03-31T02:14:11;11.20;99.90
29237;DHT22;16266;50.866;4.398;2023-03-31T02:16:39;11.10;99.90
29237;DHT22;16266;50.866;4.398;2023-03-31T02:19:12;11.10;99.90
29237;DHT22;16266;50.866;4.398;2023-03-31T02:21:45;11.10;99.90
29237;DHT22;16266;50.866;4.398;2023-03-31T02:24:15;11.00;99.90
29237;DHT22;16266;50.866;4.398;2023-03-31T02:27:14;11.10;99.90
29237;DHT22;16266;50.866;4.398;2023-03-31T02:29:42;11.00;99.90
29237;DHT22;16266;50.866;4.398;2023-03-31T02:32:31;11.10;99.90
29237;DHT22;16266;50.866;4.398;2023-03-31T02:35:00;11.10;99.90
29237;DHT22;16266;50.866;4.398;2023-03-31T02:37:27;11.10;99.90
29237;DHT22;16266;50.866;4.398;2023-03-31T02:39:55;11.00;99.90
29237;DHT22;16266;50.866;4.398;2023-03-31T02:42:22;11.10;99.90
29237;DHT22;16266;50.866;4.398;2023-03-31T02:44:48;11.00;99.90
29237;DHT22;16266;50.866;4.398;2023-03-31T02:47:16;11.00;99.90
29237;DHT22;16266;50.866;4.398;2023-03-31T02:49:47;11.00;99.90
29237;DHT22;16266;50.866;4.398;2023-03-31T02:52:35;11.00;99.90
29237;DHT22;16266;50.866;4.398;2023-03-31T03:01:06;11.00;99.90
29237;DHT22;16266;50.866;4.398;2023-03-31T03:09:20;11.00;99.90
29237;DHT22;16266;50.866;4.398;2023-03-31T03:11:51;11.00;99.90
29237;DHT22;16266;50.866;4.398;2023-03-31T03:14:36;11.00;99.90
29237;DHT22;16266;50.866;4.398;2023-03-31T03:17:38;11.10;99.90
29237;DHT22;16266;50.866;4.398;2023-03-31T03:20:06;11.00;99.90
29237;DHT22;16266;50.866;4.398;2023-03-31T03:22:36;11.00;99.90
29237;DHT22;16266;50.866;4.398;2023-03-31T03:25:06;11.00;99.90
29237;DHT22;16266;50.866;4.398;2023-03-31T03:27:34;11.00;99.90
29237;DHT22;16266;50.866;4.398;2023-03-31T03:30:01;11.00;99.90
29237;DHT22;16266;50.866;4.398;2023-03-31T03:32:28;11.00;99.90
29237;DHT22;16266;50.866;4.398;2023-03-31T03:34:53;11.00;99.90
29237;DHT22;16266;50.866;4.398;2023-03-31T03:37:19;11.00;99.90
29237;DHT22;16266;50.866;4.398;2023-03-31T03:39:45;11.00;99.90
29237;DHT22;16266;50.866;4.398;2023-03-31T03:42:11;11.00;99.90
29237;DHT22;16266;50.866;4.398;2023-03-31T03:44:36;11.00;99.90
29237;DHT22;16266;50.866;4.398;2023-03-31T03:47:02;11.00;99.90
29237;DHT22;16266;50.866;4.398;2023-03-31T03:49:28;11.10;99.90
29237;DHT22;16266;50.866;4.398;2023-03-31T03:51:53;11.00;99.90
29237;DHT22;16266;50.866;4.398;2023-03-31T03:54:19;10.90;99.90
29237;DHT22;16266;50.866;4.398;2023-03-31T03:56:45;10.80;99.90
29237;DHT22;16266;50.866;4.398;2023-03-31T03:59:11;10.70;99.90
29237;DHT22;16266;50.866;4.398;2023-03-31T04:01:36;10.60;99.90
29237;DHT22;16266;50.866;4.398;2023-03-31T04:04:02;10.60;99.90
29237;DHT22;16266;50.866;4.398;2023-03-31T04:06:28;10.60;99.90
29237;DHT22;16266;50.866;4.398;2023-03-31T04:08:53;10.50;99.90
29237;DHT22;16266;50.866;4.398;2023-03-31T04:11:19;10.50;99.90
29237;DHT22;16266;50.866;4.398;2023-03-31T04:13:45;10.40;99.90
29237;DHT22;16266;50.866;4.398;2023-03-31T04:16:11;10.40;99.90
29237;DHT22;16266;50.866;4.398;2023-03-31T04:18:37;10.30;99.90
29237;DHT22;16266;50.866;4.398;2023-03-31T04:21:08;10.40;99.90
29237;DHT22;16266;50.866;4.398;2023-03-31T04:23:38;10.40;99.90
29237;DHT22;16266;50.866;4.398;2023-03-31T04:26:11;10.50;99.90
29237;DHT22;16266;50.866;4.398;2023-03-31T04:28:37;10.50;99.90
29237;DHT22;16266;50.866;4.398;2023-03-31T04:31:09;10.50;99.90
29237;DHT22;16266;50.866;4.398;2023-03-31T04:33:35;10.50;99.90
29237;DHT22;16266;50.866;4.398;2023-03-31T04:36:07;10.50;99.90
29237;DHT22;16266;50.866;4.398;2023-03-31T04:38:48;10.60;99.90
29237;DHT22;16266;50.866;4.398;2023-03-31T04:41:20;10.60;99.90
29237;DHT22;16266;50.866;4.398;2023-03-31T04:43:45;10.70;99.90
29237;DHT22;16266;50.866;4.398;2023-03-31T04:46:11;10.70;99.90
29237;DHT22;16266;50.866;4.398;2023-03-31T04:48:37;10.70;99.90
29237;DHT22;16266;50.866;4.398;2023-03-31T04:51:03;10.80;99.90
29237;DHT22;16266;50.866;4.398;2023-03-31T04:53:28;10.80;99.90
29237;DHT22;16266;50.866;4.398;2023-03-31T04:55:54;10.90;99.90
29237;DHT22;16266;50.866;4.398;2023-03-31T04:58:20;10.90;99.90
29237;DHT22;16266;50.866;4.398;2023-03-31T05:00:46;11.00;99.90
29237;DHT22;16266;50.866;4.398;2023-03-31T05:03:11;11.00;99.90
29237;DHT22;16266;50.866;4.398;2023-03-31T05:05:37;10.90;99.90
29237;DHT22;16266;50.866;4.398;2023-03-31T05:08:03;11.00;99.90
29237;DHT22;16266;50.866;4.398;2023-03-31T05:10:30;11.10;99.90
29237;DHT22;16266;50.866;4.398;2023-03-31T05:12:56;11.00;99.90
29237;DHT22;16266;50.866;4.398;2023-03-31T05:15:22;11.10;99.90
29237;DHT22;16266;50.866;4.398;2023-03-31T05:17:49;11.00;99.90
29237;DHT22;16266;50.866;4.398;2023-03-31T05:20:15;11.00;99.90
29237;DHT22;16266;50.866;4.398;2023-03-31T05:22:41;11.00;99.90
29237;DHT22;16266;50.866;4.398;2023-03-31T05:25:08;11.00;99.90
29237;DHT22;16266;50.866;4.398;2023-03-31T05:27:34;11.00;99.90
29237;DHT22;16266;50.866;4.398;2023-03-31T05:30:01;11.00;99.90
29237;DHT22;16266;50.866;4.398;2023-03-31T05:32:27;11.00;99.90
29237;DHT22;16266;50.866;4.398;2023-03-31T05:34:53;11.00;99.90
29237;DHT22;16266;50.866;4.398;2023-03-31T05:37:23;11.10;99.90
29237;DHT22;16266;50.866;4.398;2023-03-31T05:39:50;11.00;99.90
29237;DHT22;16266;50.866;4.398;2023-03-31T05:42:16;11.10;99.90
29237;DHT22;16266;50.866;4.398;2023-03-31T05:44:41;11.10;99.90
29237;DHT22;16266;50.866;4.398;2023-03-31T05:47:07;11.10;99.90
29237;DHT22;16266;50.866;4.398;2023-03-31T05:49:33;11.10;99.90
29237;DHT22;16266;50.866;4.398;2023-03-31T05:51:58;11.10;99.90
29237;DHT22;16266;50.866;4.398;2023-03-31T05:54:24;11.10;99.90
29237;DHT22;16266;50.866;4.398;2023-03-31T05:56:50;11.20;99.90
29237;DHT22;16266;50.866;4.398;2023-03-31T05:59:17;11.20;99.90
29237;DHT22;16266;50.866;4.398;2023-03-31T06:01:43;11.20;99.90
29237;DHT22;16266;50.866;4.398;2023-03-31T06:04:08;11.20;99.90
29237;DHT22;16266;50.866;4.398;2023-03-31T06:06:34;11.30;99.90
29237;DHT22;16266;50.866;4.398;2023-03-31T06:09:03;11.30;99.90
29237;DHT22;16266;50.866;4.398;2023-03-31T06:11:29;11.30;99.90
29237;DHT22;16266;50.866;4.398;2023-03-31T06:13:55;11.30;99.90
29237;DHT22;16266;50.866;4.398;2023-03-31T06:16:20;11.30;99.90
29237;DHT22;16266;50.866;4.398;2023-03-31T06:18:46;11.30;99.90
29237;DHT22;16266;50.866;4.398;2023-03-31T06:21:14;11.30;99.90
29237;DHT22;16266;50.866;4.398;2023-03-31T06:23:44;11.40;99.90
29237;DHT22;16266;50.866;4.398;2023-03-31T06:26:12;11.40;99.90
29237;DHT22;16266;50.866;4.398;2023-03-31T06:28:38;11.50;99.90
29237;DHT22;16266;50.866;4.398;2023-03-31T06:31:09;11.50;99.90
29237;DHT22;16266;50.866;4.398;2023-03-31T06:33:38;11.60;99.90
29237;DHT22;16266;50.866;4.398;2023-03-31T06:36:05;11.70;99.90
29237;DHT22;16266;50.866;4.398;2023-03-31T06:38:35;11.70;99.90
29237;DHT22;16266;50.866;4.398;2023-03-31T06:41:01;11.70;99.90
29237;DHT22;16266;50.866;4.398;2023-03-31T06:43:27;11.80;99.90
29237;DHT22;16266;50.866;4.398;2023-03-31T06:45:53;11.90;99.90
29237;DHT22;16266;50.866;4.398;2023-03-31T06:48:19;12.00;99.90
29237;DHT22;16266;50.866;4.398;2023-03-31T06:50:45;12.10;99.90
29237;DHT22;16266;50.866;4.398;2023-03-31T06:53:11;12.20;99.90
29237;DHT22;16266;50.866;4.398;2023-03-31T06:55:37;12.40;99.90
29237;DHT22;16266;50.866;4.398;2023-03-31T06:58:03;12.40;99.90
29237;DHT22;16266;50.866;4.398;2023-03-31T07:00:30;12.40;99.90
29237;DHT22;16266;50.866;4.398;2023-03-31T07:02:56;12.40;99.90
29237;DHT22;16266;50.866;4.398;2023-03-31T07:05:21;12.40;99.90
29237;DHT22;16266;50.866;4.398;2023-03-31T07:07:58;12.30;99.90
29237;DHT22;16266;50.866;4.398;2023-03-31T07:10:25;12.30;99.90
29237;DHT22;16266;50.866;4.398;2023-03-31T07:12:51;12.40;99.90
29237;DHT22;16266;50.866;4.398;2023-03-31T07:15:17;12.30;99.90
29237;DHT22;16266;50.866;4.398;2023-03-31T07:17:42;12.40;99.90
29237;DHT22;16266;50.866;4.398;2023-03-31T07:20:09;12.40;99.90
29237;DHT22;16266;50.866;4.398;2023-03-31T07:22:37;12.40;99.90
29237;DHT22;16266;50.866;4.398;2023-03-31T07:25:06;12.60;99.90
29237;DHT22;16266;50.866;4.398;2023-03-31T07:27:31;12.70;99.90
29237;DHT22;16266;50.866;4.398;2023-03-31T07:29:57;12.70;99.90
29237;DHT22;16266;50.866;4.398;2023-03-31T07:32:22;12.80;99.90
29237;DHT22;16266;50.866;4.398;2023-03-31T07:34:48;12.70;99.90
29237;DHT22;16266;50.866;4.398;2023-03-31T07:37:14;12.50;99.90
29237;DHT22;16266;50.866;4.398;2023-03-31T07:39:40;12.30;99.90
29237;DHT22;16266;50.866;4.398;2023-03-31T07:42:05;12.20;99.90
29237;DHT22;16266;50.866;4.398;2023-03-31T07:44:35;12.20;99.90
29237;DHT22;16266;50.866;4.398;2023-03-31T07:47:01;12.10;99.90
29237;DHT22;16266;50.866;4.398;2023-03-31T07:49:29;12.10;99.90
29237;DHT22;16266;50.866;4.398;2023-03-31T07:51:55;12.10;99.90
29237;DHT22;16266;50.866;4.398;2023-03-31T07:54:21;12.10;99.90
29237;DHT22;16266;50.866;4.398;2023-03-31T07:56:47;12.10;99.90
29237;DHT22;16266;50.866;4.398;2023-03-31T07:59:13;12.00;99.90
29237;DHT22;16266;50.866;4.398;2023-03-31T08:01:39;12.00;99.90
29237;DHT22;16266;50.866;4.398;2023-03-31T08:04:05;11.90;99.90
29237;DHT22;16266;50.866;4.398;2023-03-31T08:06:30;11.90;99.90
29237;DHT22;16266;50.866;4.398;2023-03-31T08:08:57;12.00;99.90
29237;DHT22;16266;50.866;4.398;2023-03-31T08:11:24;12.00;99.90
29237;DHT22;16266;50.866;4.398;2023-03-31T08:13:50;12.00;99.90
29237;DHT22;16266;50.866;4.398;2023-03-31T08:16:16;12.10;99.90
29237;DHT22;16266;50.866;4.398;2023-03-31T08:18:42;12.30;99.90
29237;DHT22;16266;50.866;4.398;2023-03-31T08:21:07;12.40;99.90
29237;DHT22;16266;50.866;4.398;2023-03-31T08:23:36;12.40;99.90
29237;DHT22;16266;50.866;4.398;2023-03-31T08:26:16;12.50;99.90
29237;DHT22;16266;50.866;4.398;2023-03-31T08:28:43;12.50;99.90
29237;DHT22;16266;50.866;4.398;2023-03-31T08:31:09;12.50;99.90
29237;DHT22;16266;50.866;4.398;2023-03-31T08:33:36;12.50;99.90
29237;DHT22;16266;50.866;4.398;2023-03-31T08:36:06;12.50;99.90
29237;DHT22;16266;50.866;4.398;2023-03-31T08:38:34;12.50;99.90
29237;DHT22;16266;50.866;4.398;2023-03-31T08:41:03;12.50;99.90
29237;DHT22;16266;50.866;4.398;2023-03-31T08:43:37;12.50;99.90
29237;DHT22;16266;50.866;4.398;2023-03-31T08:46:04;12.50;99.90
29237;DHT22;16266;50.866;4.398;2023-03-31T08:48:43;12.60;99.90
29237;DHT22;16266;50.866;4.398;2023-03-31T08:51:29;12.70;99.90
29237;DHT22;16266;50.866;4.398;2023-03-31T08:54:00;12.80;99.90
29237;DHT22;16266;50.866;4.398;2023-03-31T08:56:34;12.90;99.90
29237;DHT22;16266;50.866;4.398;2023-03-31T08:59:03;12.80;99.90
29237;DHT22;16266;50.866;4.398;2023-03-31T09:04:16;12.70;99.90
29237;DHT22;16266;50.866;4.398;2023-03-31T09:12:10;12.70;99.90
29237;DHT22;16266;50.866;4.398;2023-03-31T09:15:00;12.60;99.90
29237;DHT22;16266;50.866;4.398;2023-03-31T09:17:29;12.60;99.90
29237;DHT22;16266;50.866;4.398;2023-03-31T09:22:43;12.80;99.90
29237;DHT22;16266;50.866;4.398;2023-03-31T09:25:15;12.90;99.90
29237;DHT22;16266;50.866;4.398;2023-03-31T09:27:43;13.20;99.90
29237;DHT22;16266;50.866;4.398;2023-03-31T09:30:16;13.40;99.90
29237;DHT22;16266;50.866;4.398;2023-03-31T09:32:47;13.40;99.90
29237;DHT22;16266;50.866;4.398;2023-03-31T09:35:22;13.40;99.90
29237;DHT22;16266;50.866;4.398;2023-03-31T09:37:50;13.50;99.90
29237;DHT22;16266;50.866;4.398;2023-03-31T09:40:25;13.50;99.90
29237;DHT22;16266;50.866;4.398;2023-03-31T09:43:00;13.50;99.90
29237;DHT22;16266;50.866;4.398;2023-03-31T09:45:27;13.60;99.90
29237;DHT22;16266;50.866;4.398;2023-03-31T09:47:54;13.60;99.90
29237;DHT22;16266;50.866;4.398;2023-03-31T09:50:22;13.60;99.90
29237;DHT22;16266;50.866;4.398;2023-03-31T09:52:54;13.60;99.90
29237;DHT22;16266;50.866;4.398;2023-03-31T09:57:46;13.30;99.90
29237;DHT22;16266;50.866;4.398;2023-03-31T10:00:16;13.10;99.90
29237;DHT22;16266;50.866;4.398;2023-03-31T10:02:43;12.90;99.90
29237;DHT22;16266;50.866;4.398;2023-03-31T10:07:50;13.00;99.90
29237;DHT22;16266;50.866;4.398;2023-03-31T10:10:34;13.00;99.90
29237;DHT22;16266;50.866;4.398;2023-03-31T10:13:06;13.00;99.90
29237;DHT22;16266;50.866;4.398;2023-03-31T10:15:36;12.90;99.90
29237;DHT22;16266;50.866;4.398;2023-03-31T10:18:03;13.00;99.90
29237;DHT22;16266;50.866;4.398;2023-03-31T10:20:36;13.00;99.90
29237;DHT22;16266;50.866;4.398;2023-03-31T10:23:15;13.00;99.90
29237;DHT22;16266;50.866;4.398;2023-03-31T10:25:42;12.80;99.90
29237;DHT22;16266;50.866;4.398;2023-03-31T10:28:14;12.70;99.90
29237;DHT22;16266;50.866;4.398;2023-03-31T10:30:47;12.70;99.90
29237;DHT22;16266;50.866;4.398;2023-03-31T10:33:18;12.80;99.90
29237;DHT22;16266;50.866;4.398;2023-03-31T10:35:44;12.80;99.90
29237;DHT22;16266;50.866;4.398;2023-03-31T10:38:25;12.90;99.90
29237;DHT22;16266;50.866;4.398;2023-03-31T10:40:54;13.00;99.90
29237;DHT22;16266;50.866;4.398;2023-03-31T10:43:33;13.10;99.90
29237;DHT22;16266;50.866;4.398;2023-03-31T10:46:00;13.10;99.90
29237;DHT22;16266;50.866;4.398;2023-03-31T10:48:30;13.10;99.90
29237;DHT22;16266;50.866;4.398;2023-03-31T10:51:04;13.00;99.90
29237;DHT22;16266;50.866;4.398;2023-03-31T10:53:51;13.10;99.90
29237;DHT22;16266;50.866;4.398;2023-03-31T11:02:00;13.50;99.90
29237;DHT22;16266;50.866;4.398;2023-03-31T11:04:45;13.30;99.90
29237;DHT22;16266;50.866;4.398;2023-03-31T11:10:30;13.10;99.90
29237;DHT22;16266;50.866;4.398;2023-03-31T11:23:56;13.60;99.90
29237;DHT22;16266;50.866;4.398;2023-03-31T11:26:50;13.50;99.90
29237;DHT22;16266;50.866;4.398;2023-03-31T11:29:54;13.70;99.90
29237;DHT22;16266;50.866;4.398;2023-03-31T11:43:34;14.20;99.90
29237;DHT22;16266;50.866;4.398;2023-03-31T11:48:50;14.10;99.90
29237;DHT22;16266;50.866;4.398;2023-03-31T11:53:55;13.90;99.90
29237;DHT22;16266;50.866;4.398;2023-03-31T11:56:26;13.70;99.90
29237;DHT22;16266;50.866;4.398;2023-03-31T11:58:56;13.50;99.90
29237;DHT22;16266;50.866;4.398;2023-03-31T12:01:28;13.40;99.90
29237;DHT22;16266;50.866;4.398;2023-03-31T12:04:19;13.50;99.90
29237;DHT22;16266;50.866;4.398;2023-03-31T12:06:49;13.40;99.90
29237;DHT22;16266;50.866;4.398;2023-03-31T12:12:18;12.90;99.90
29237;DHT22;16266;50.866;4.398;2023-03-31T12:14:52;12.80;99.90
29237;DHT22;16266;50.866;4.398;2023-03-31T12:17:25;12.50;99.90
29237;DHT22;16266;50.866;4.398;2023-03-31T12:19:55;12.30;99.90
29237;DHT22;16266;50.866;4.398;2023-03-31T12:22:26;12.20;99.90
29237;DHT22;16266;50.866;4.398;2023-03-31T12:24:53;12.10;99.90
29237;DHT22;16266;50.866;4.398;2023-03-31T12:27:25;12.00;99.90
29237;DHT22;16266;50.866;4.398;2023-03-31T12:32:31;11.90;99.90
29237;DHT22;16266;50.866;4.398;2023-03-31T12:38:32;12.30;99.90
29237;DHT22;16266;50.866;4.398;2023-03-31T12:49:05;13.10;99.90
29237;DHT22;16266;50.866;4.398;2023-03-31T12:59:42;12.70;99.90
29237;DHT22;16266;50.866;4.398;2023-03-31T13:04:34;13.30;99.90
29237;DHT22;16266;50.866;4.398;2023-03-31T13:07:02;13.50;99.90
29237;DHT22;16266;50.866;4.398;2023-03-31T13:09:38;13.70;99.90
29237;DHT22;16266;50.866;4.398;2023-03-31T13:12:12;13.90;99.90
29237;DHT22;16266;50.866;4.398;2023-03-31T13:14:42;13.70;99.90
29237;DHT22;16266;50.866;4.398;2023-03-31T13:19:50;13.40;99.90
29237;DHT22;16266;50.866;4.398;2023-03-31T13:27:54;13.10;99.90
29237;DHT22;16266;50.866;4.398;2023-03-31T13:33:11;12.60;99.90
29237;DHT22;16266;50.866;4.398;2023-03-31T13:35:40;12.40;99.90
29237;DHT22;16266;50.866;4.398;2023-03-31T13:44:15;12.20;99.90
29237;DHT22;16266;50.866;4.398;2023-03-31T13:50:09;12.00;99.90
29237;DHT22;16266;50.866;4.398;2023-03-31T13:53:24;11.90;99.90
29237;DHT22;16266;50.866;4.398;2023-03-31T14:09:41;11.60;99.90
29237;DHT22;16266;50.866;4.398;2023-03-31T14:12:31;11.70;99.90
29237;DHT22;16266;50.866;4.398;2023-03-31T14:14:58;11.90;99.90
29237;DHT22;16266;50.866;4.398;2023-03-31T14:17:36;12.00;99.90
29237;DHT22;16266;50.866;4.398;2023-03-31T14:23:29;12.00;99.90
29237;DHT22;16266;50.866;4.398;2023-03-31T14:31:46;12.00;99.90
29237;DHT22;16266;50.866;4.398;2023-03-31T14:34:24;12.10;99.90
29237;DHT22;16266;50.866;4.398;2023-03-31T14:37:03;12.10;99.90
29237;DHT22;16266;50.866;4.398;2023-03-31T14:39:35;12.10;99.90
29237;DHT22;16266;50.866;4.398;2023-03-31T14:42:08;12.00;99.90
29237;DHT22;16266;50.866;4.398;2023-03-31T14:44:36;12.00;99.90
29237;DHT22;16266;50.866;4.398;2023-03-31T14:47:04;12.00;99.90
29237;DHT22;16266;50.866;4.398;2023-03-31T14:49:39;12.10;99.90
29237;DHT22;16266;50.866;4.398;2023-03-31T14:52:17;12.20;99.90
29237;DHT22;16266;50.866;4.398;2023-03-31T14:54:47;12.20;99.90
29237;DHT22;16266;50.866;4.398;2023-03-31T14:57:19;12.10;99.90
29237;DHT22;16266;50.866;4.398;2023-03-31T14:59:50;12.20;99.90
29237;DHT22;16266;50.866;4.398;2023-03-31T15:02:22;12.20;99.90
29237;DHT22;16266;50.866;4.398;2023-03-31T15:04:54;12.10;99.90
29237;DHT22;16266;50.866;4.398;2023-03-31T15:07:22;11.90;99.90
29237;DHT22;16266;50.866;4.398;2023-03-31T15:09:49;11.70;99.90
29237;DHT22;16266;50.866;4.398;2023-03-31T15:12:19;11.80;99.90
29237;DHT22;16266;50.866;4.398;2023-03-31T15:14:54;11.80;99.90
29237;DHT22;16266;50.866;4.398;2023-03-31T15:17:24;11.80;99.90
29237;DHT22;16266;50.866;4.398;2023-03-31T15:19:55;11.70;99.90
29237;DHT22;16266;50.866;4.398;2023-03-31T15:22:26;11.70;99.90
29237;DHT22;16266;50.866;4.398;2023-03-31T15:24:52;11.80;99.90
29237;DHT22;16266;50.866;4.398;2023-03-31T15:29:52;11.90;99.90
29237;DHT22;16266;50.866;4.398;2023-03-31T15:32:25;11.90;99.90
29237;DHT22;16266;50.866;4.398;2023-03-31T15:34:52;11.90;99.90
29237;DHT22;16266;50.866;4.398;2023-03-31T15:37:27;11.90;99.90
29237;DHT22;16266;50.866;4.398;2023-03-31T15:39:57;12.00;99.90
29237;DHT22;16266;50.866;4.398;2023-03-31T15:42:25;12.00;99.90
29237;DHT22;16266;50.866;4.398;2023-03-31T15:47:48;11.80;99.90
29237;DHT22;16266;50.866;4.398;2023-03-31T15:50:14;11.90;99.90
29237;DHT22;16266;50.866;4.398;2023-03-31T15:52:52;11.90;99.90
29237;DHT22;16266;50.866;4.398;2023-03-31T15:55:29;11.80;99.90
29237;DHT22;16266;50.866;4.398;2023-03-31T15:57:57;11.80;99.90
29237;DHT22;16266;50.866;4.398;2023-03-31T16:03:04;11.90;99.90
29237;DHT22;16266;50.866;4.398;2023-03-31T16:05:40;11.90;99.90
29237;DHT22;16266;50.866;4.398;2023-03-31T16:08:38;11.80;99.90
29237;DHT22;16266;50.866;4.398;2023-03-31T16:11:54;11.70;99.90
29237;DHT22;16266;50.866;4.398;2023-03-31T16:14:09;11.60;99.90
29237;DHT22;16266;50.866;4.398;2023-03-31T16:16:36;11.60;99.90
29237;DHT22;16266;50.866;4.398;2023-03-31T16:19:05;11.60;99.90
29237;DHT22;16266;50.866;4.398;2023-03-31T16:21:46;11.50;99.90
29237;DHT22;16266;50.866;4.398;2023-03-31T16:24:18;11.40;99.90
29237;DHT22;16266;50.866;4.398;2023-03-31T16:26:44;11.30;99.90
29237;DHT22;16266;50.866;4.398;2023-03-31T16:29:19;11.20;99.90
29237;DHT22;16266;50.866;4.398;2023-03-31T16:31:45;11.20;99.90
29237;DHT22;16266;50.866;4.398;2023-03-31T16:34:11;11.10;99.90
29237;DHT22;16266;50.866;4.398;2023-03-31T16:36:37;11.10;99.90
29237;DHT22;16266;50.866;4.398;2023-03-31T16:39:04;11.00;99.90
29237;DHT22;16266;50.866;4.398;2023-03-31T16:41:34;11.10;99.90
29237;DHT22;16266;50.866;4.398;2023-03-31T16:44:00;11.00;99.90
29237;DHT22;16266;50.866;4.398;2023-03-31T16:46:26;11.00;99.90
29237;DHT22;16266;50.866;4.398;2023-03-31T16:48:52;11.00;99.90
29237;DHT22;16266;50.866;4.398;2023-03-31T16:51:18;11.00;99.90
29237;DHT22;16266;50.866;4.398;2023-03-31T16:53:44;11.00;99.90
29237;DHT22;16266;50.866;4.398;2023-03-31T16:56:11;11.00;99.90
29237;DHT22;16266;50.866;4.398;2023-03-31T16:58:37;10.90;99.90
29237;DHT22;16266;50.866;4.398;2023-03-31T17:01:04;11.00;99.90
29237;DHT22;16266;50.866;4.398;2023-03-31T17:03:32;10.90;99.90
29237;DHT22;16266;50.866;4.398;2023-03-31T17:06:04;10.90;99.90
29237;DHT22;16266;50.866;4.398;2023-03-31T17:08:30;10.90;99.90
29237;DHT22;16266;50.866;4.398;2023-03-31T17:11:02;10.90;99.90
29237;DHT22;16266;50.866;4.398;2023-03-31T17:13:30;10.90;99.90
29237;DHT22;16266;50.866;4.398;2023-03-31T17:15:57;10.90;99.90
29237;DHT22;16266;50.866;4.398;2023-03-31T17:18:22;10.80;99.90
29237;DHT22;16266;50.866;4.398;2023-03-31T17:20:48;10.90;99.90
29237;DHT22;16266;50.866;4.398;2023-03-31T17:23:14;10.90;99.90
29237;DHT22;16266;50.866;4.398;2023-03-31T17:25:46;10.90;99.90
29237;DHT22;16266;50.866;4.398;2023-03-31T17:28:12;10.80;99.90
29237;DHT22;16266;50.866;4.398;2023-03-31T17:30:38;10.90;99.90
29237;DHT22;16266;50.866;4.398;2023-03-31T17:33:03;10.90;99.90
29237;DHT22;16266;50.866;4.398;2023-03-31T17:35:29;10.80;99.90
29237;DHT22;16266;50.866;4.398;2023-03-31T17:37:55;10.80;99.90
29237;DHT22;16266;50.866;4.398;2023-03-31T17:40:23;10.80;99.90
29237;DHT22;16266;50.866;4.398;2023-03-31T17:42:48;10.80;99.90
29237;DHT22;16266;50.866;4.398;2023-03-31T17:45:14;10.80;99.90
29237;DHT22;16266;50.866;4.398;2023-03-31T17:47:40;10.70;99.90
29237;DHT22;16266;50.866;4.398;2023-03-31T17:50:07;10.70;99.90
29237;DHT22;16266;50.866;4.398;2023-03-31T17:52:33;10.60;99.90
29237;DHT22;16266;50.866;4.398;2023-03-31T17:55:00;10.60;99.90
29237;DHT22;16266;50.866;4.398;2023-03-31T17:57:26;10.60;99.90
29237;DHT22;16266;50.866;4.398;2023-03-31T17:59:52;10.60;99.90
29237;DHT22;16266;50.866;4.398;2023-03-31T18:02:18;10.60;99.90
29237;DHT22;16266;50.866;4.398;2023-03-31T18:04:44;10.60;99.90
29237;DHT22;16266;50.866;4.398;2023-03-31T18:07:09;10.60;99.90
29237;DHT22;16266;50.866;4.398;2023-03-31T18:09:36;10.50;99.90
29237;DHT22;16266;50.866;4.398;2023-03-31T18:12:02;10.60;99.90
29237;DHT22;16266;50.866;4.398;2023-03-31T18:14:28;10.60;99.90
29237;DHT22;16266;50.866;4.398;2023-03-31T18:16:55;10.50;99.90
29237;DHT22;16266;50.866;4.398;2023-03-31T18:19:21;10.50;99.90
29237;DHT22;16266;50.866;4.398;2023-03-31T18:21:47;10.50;99.90
29237;DHT22;16266;50.866;4.398;2023-03-31T18:24:12;10.50;99.90
29237;DHT22;16266;50.866;4.398;2023-03-31T18:26:38;10.50;99.90
29237;DHT22;16266;50.866;4.398;2023-03-31T18:29:04;10.50;99.90
29237;DHT22;16266;50.866;4.398;2023-03-31T18:31:30;10.50;99.90
29237;DHT22;16266;50.866;4.398;2023-03-31T18:33:56;10.50;99.90